Time;durP1;ratioP1;P1;durP2;ratioP2;P2;SDS_P1;SDS_P2;PMS_P1;PMS_P2;Temp;Humidity;BMP_temperature;BMP_pressure;BME280_temperature;BME280_humidity;BME280_pressure;Samples;Min_cycle;Max_cycle;Signal;HPM_P1;HPM_P2
2022/12/17 13:06:40;;;;;;;19.75;8.38;;;;;;;;;;4965143;28;20168;-54
2022/12/17 13:09:05;;;;;;;53.13;15.70;;;;;;;;;;4982295;28;20026;-55
2022/12/17 13:11:35;;;;;;;116.78;52.17;;;;;;;;;;4975303;28;20271;-55
2022/12/17 13:14:00;;;;;;;46.15;18.63;;;;;;;;;;4976192;28;20572;-56
2022/12/17 13:16:44;;;;;;;44.88;14.40;;;;;;;;;;4967077;28;20057;-55
2022/12/17 13:19:17;;;;;;;30.88;14.73;;;;;;;;;;4981368;28;20030;-55
2022/12/17 13:21:42;;;;;;;59.97;21.85;;;;;;;;;;4973155;28;20054;-56
2022/12/17 13:24:11;;;;;;;51.47;17.90;;;;;;;;;;4976695;28;20141;-56
2022/12/17 13:26:39;;;;;;;33.45;12.52;;;;;;;;;;4978891;28;20100;-55
2022/12/17 13:29:21;;;;;;;33.55;14.40;;;;;;;;;;4970882;28;20034;-54
2022/12/17 13:31:59;;;;;;;35.10;12.73;;;;;;;;;;4973743;28;20029;-56
2022/12/17 13:34:27;;;;;;;43.40;17.70;;;;;;;;;;4971263;28;20427;-56
2022/12/17 13:37:00;;;;;;;80.22;14.80;;;;;;;;;;4980172;28;20034;-55
2022/12/17 13:39:49;;;;;;;86.82;43.03;;;;;;;;;;4970470;28;20027;-58
2022/12/17 13:42:18;;;;;;;23.95;9.05;;;;;;;;;;4946758;28;20054;-55
2022/12/17 13:44:43;;;;;;;32.95;14.98;;;;;;;;;;4964024;28;20494;-56
2022/12/17 13:47:29;;;;;;;91.65;19.98;;;;;;;;;;4962711;28;20105;-55
2022/12/17 13:49:55;;;;;;;44.28;14.95;;;;;;;;;;4975333;28;20031;-56
2022/12/17 13:52:22;;;;;;;41.58;12.30;;;;;;;;;;4977217;28;20480;-55
2022/12/17 13:54:47;;;;;;;52.42;11.05;;;;;;;;;;4980322;28;20082;-56
2022/12/17 13:57:31;;;;;;;34.05;13.48;;;;;;;;;;4967225;28;20069;-55
2022/12/17 13:59:57;;;;;;;24.17;10.07;;;;;;;;;;4973890;28;20030;-57
2022/12/17 14:02:22;;;;;;;29.65;12.75;;;;;;;;;;4977038;28;20355;-55
2022/12/17 14:04:50;;;;;;;23.08;10.23;;;;;;;;;;4979546;28;20460;-56
2022/12/17 14:07:15;;;;;;;31.98;13.80;;;;;;;;;;4978978;28;20022;-55
2022/12/17 14:09:41;;;;;;;38.70;15.20;;;;;;;;;;4977601;28;20487;-56
2022/12/17 14:12:22;;;;;;;31.40;15.00;;;;;;;;;;4960510;28;20034;-55
2022/12/17 14:14:48;;;;;;;33.35;14.18;;;;;;;;;;4975267;28;20221;-56
2022/12/17 14:17:21;;;;;;;37.85;13.77;;;;;;;;;;4976825;28;20033;-55
2022/12/17 14:19:47;;;;;;;36.05;14.57;;;;;;;;;;4978091;28;20026;-55
2022/12/17 14:22:15;;;;;;;41.47;18.48;;;;;;;;;;4958940;28;20064;-55
2022/12/17 14:24:40;;;;;;;42.30;17.00;;;;;;;;;;4954689;28;20055;-54
2022/12/17 14:27:16;;;;;;;53.55;19.10;;;;;;;;;;4959870;28;20033;-54
2022/12/17 14:29:45;;;;;;;60.03;19.65;;;;;;;;;;4962938;28;20034;-55
2022/12/17 14:32:20;;;;;;;33.80;15.07;;;;;;;;;;4975153;28;20036;-55
2022/12/17 14:34:45;;;;;;;43.97;18.00;;;;;;;;;;4973316;28;20127;-55
2022/12/17 14:37:14;;;;;;;40.72;17.40;;;;;;;;;;4973429;28;20091;-55
2022/12/17 14:39:39;;;;;;;57.95;20.50;;;;;;;;;;4969926;28;20015;-57
2022/12/17 14:42:28;;;;;;;41.10;16.30;;;;;;;;;;4963787;28;20100;-55
2022/12/17 14:44:56;;;;;;;38.55;15.57;;;;;;;;;;4970041;28;20027;-55
2022/12/17 14:47:25;;;;;;;36.75;15.20;;;;;;;;;;4973145;28;20510;-54
2022/12/17 14:49:53;;;;;;;27.50;13.05;;;;;;;;;;4977642;28;20038;-56
2022/12/17 14:52:41;;;;;;;33.10;13.25;;;;;;;;;;4971802;28;20102;-55
2022/12/17 14:55:26;;;;;;;41.17;16.25;;;;;;;;;;4967615;28;20038;-54
2022/12/17 14:57:51;;;;;;;34.70;14.48;;;;;;;;;;4974143;28;20132;-55
2022/12/17 15:00:17;;;;;;;41.65;17.35;;;;;;;;;;4976085;28;20113;-54
2022/12/17 15:02:42;;;;;;;35.70;15.85;;;;;;;;;;4970584;28;20038;-54
2022/12/17 15:05:11;;;;;;;39.88;15.23;;;;;;;;;;4972522;28;20027;-55
2022/12/17 15:07:37;;;;;;;34.90;15.15;;;;;;;;;;4959869;28;20053;-54
2022/12/17 15:10:07;;;;;;;50.58;19.25;;;;;;;;;;4943446;28;20018;-55
2022/12/17 15:12:32;;;;;;;61.63;17.17;;;;;;;;;;4976725;28;20412;-56
2022/12/17 15:14:58;;;;;;;65.82;22.40;;;;;;;;;;4976612;28;20022;-54
2022/12/17 15:17:23;;;;;;;85.72;32.45;;;;;;;;;;4986024;28;20445;-55
2022/12/17 15:19:48;;;;;;;86.25;28.10;;;;;;;;;;4971228;28;20025;-55
2022/12/17 15:22:16;;;;;;;59.50;24.17;;;;;;;;;;4973873;28;20396;-56
2022/12/17 15:24:42;;;;;;;52.17;20.58;;;;;;;;;;4976700;28;20136;-56
2022/12/17 15:27:10;;;;;;;51.35;16.85;;;;;;;;;;4973058;28;20106;-55
2022/12/17 15:29:35;;;;;;;72.10;15.43;;;;;;;;;;4969466;28;20019;-55
2022/12/17 15:32:01;;;;;;;76.78;16.45;;;;;;;;;;4970921;28;20031;-56
2022/12/17 15:34:26;;;;;;;46.15;11.95;;;;;;;;;;4976283;28;20113;-54
2022/12/17 15:36:52;;;;;;;57.88;11.32;;;;;;;;;;4971589;28;20035;-56
2022/12/17 15:39:17;;;;;;;57.45;16.05;;;;;;;;;;4981156;28;20057;-54
2022/12/17 15:44:26;;;;;;;108.95;33.05;;;;;;;;;;4977574;28;20029;-54
2022/12/17 15:46:51;;;;;;;113.90;27.52;;;;;;;;;;4978222;28;20026;-55
2022/12/17 15:49:16;;;;;;;60.30;17.10;;;;;;;;;;4975988;28;20481;-53
2022/12/17 15:51:42;;;;;;;92.40;16.90;;;;;;;;;;4978276;28;20062;-55
2022/12/17 15:54:07;;;;;;;19.13;9.27;;;;;;;;;;4980836;28;20028;-56
2022/12/17 15:56:33;;;;;;;43.33;14.30;;;;;;;;;;4978755;28;20085;-55
2022/12/17 15:58:58;;;;;;;57.10;15.52;;;;;;;;;;4980533;28;20400;-55
2022/12/17 16:01:24;;;;;;;65.22;19.20;;;;;;;;;;4987536;28;20036;-55
2022/12/17 16:03:50;;;;;;;82.20;22.13;;;;;;;;;;4967818;28;20449;-55
2022/12/17 16:06:15;;;;;;;33.05;12.18;;;;;;;;;;4958592;28;20034;-53
2022/12/17 16:08:41;;;;;;;72.32;17.00;;;;;;;;;;4987760;28;20085;-56
2022/12/17 16:11:07;;;;;;;89.63;13.05;;;;;;;;;;4967748;28;20484;-55
2022/12/17 16:13:32;;;;;;;42.67;13.77;;;;;;;;;;4986901;28;20393;-55
2022/12/17 16:15:57;;;;;;;83.78;12.68;;;;;;;;;;4984992;28;20026;-56
2022/12/17 16:18:24;;;;;;;76.82;18.45;;;;;;;;;;4972717;28;20053;-56
2022/12/17 16:20:49;;;;;;;91.80;21.83;;;;;;;;;;4983783;28;20031;-55
2022/12/17 16:23:14;;;;;;;41.42;18.88;;;;;;;;;;4964694;28;20373;-56
2022/12/17 16:25:40;;;;;;;84.63;24.08;;;;;;;;;;4981011;28;20248;-56
2022/12/17 16:28:05;;;;;;;50.08;20.13;;;;;;;;;;4978478;28;20217;-55
2022/12/17 16:30:30;;;;;;;57.35;20.00;;;;;;;;;;4990950;28;20027;-55
2022/12/17 16:32:59;;;;;;;37.83;16.55;;;;;;;;;;4980404;28;20492;-56
2022/12/17 16:35:24;;;;;;;48.40;16.83;;;;;;;;;;4979116;28;20053;-55
2022/12/17 16:37:49;;;;;;;49.95;18.23;;;;;;;;;;4977601;28;20658;-55
2022/12/17 16:40:15;;;;;;;36.17;15.68;;;;;;;;;;4975185;28;20027;-55
2022/12/17 16:42:40;;;;;;;35.45;16.63;;;;;;;;;;4973717;28;20047;-55
2022/12/17 16:45:06;;;;;;;65.70;27.25;;;;;;;;;;4971234;28;20047;-55
2022/12/17 16:47:31;;;;;;;138.93;43.30;;;;;;;;;;4976757;28;20484;-55
2022/12/17 16:49:56;;;;;;;54.92;23.02;;;;;;;;;;4985439;28;20614;-55
2022/12/17 16:52:22;;;;;;;65.88;24.33;;;;;;;;;;4974402;28;20015;-55
2022/12/17 16:54:47;;;;;;;54.55;21.17;;;;;;;;;;4979773;28;20354;-54
2022/12/17 16:57:13;;;;;;;73.47;19.77;;;;;;;;;;4981614;28;20115;-56
2022/12/17 16:59:38;;;;;;;59.55;18.30;;;;;;;;;;4987931;28;20037;-56
2022/12/17 17:02:03;;;;;;;51.63;19.45;;;;;;;;;;4985606;28;20038;-54
2022/12/17 17:04:29;;;;;;;40.30;15.57;;;;;;;;;;4976656;28;20029;-55
2022/12/17 17:06:54;;;;;;;73.72;15.35;;;;;;;;;;4985966;28;20022;-55
2022/12/17 17:09:20;;;;;;;84.10;15.82;;;;;;;;;;4986983;28;20026;-55
2022/12/17 17:11:45;;;;;;;68.15;15.65;;;;;;;;;;4983079;28;20022;-56
2022/12/17 17:14:10;;;;;;;51.78;14.60;;;;;;;;;;4965256;28;20034;-56
2022/12/17 17:16:36;;;;;;;51.10;14.15;;;;;;;;;;4985942;28;20029;-56
2022/12/17 17:19:01;;;;;;;58.92;16.35;;;;;;;;;;4970834;28;20022;-54
2022/12/17 17:21:26;;;;;;;37.33;16.80;;;;;;;;;;4975765;28;20026;-56
2022/12/17 17:23:53;;;;;;;76.32;12.50;;;;;;;;;;4985069;28;20404;-55
2022/12/17 17:26:21;;;;;;;79.93;18.90;;;;;;;;;;4985203;28;20460;-56
2022/12/17 17:28:46;;;;;;;65.78;18.95;;;;;;;;;;4988131;28;20021;-55
2022/12/17 17:31:11;;;;;;;54.25;18.15;;;;;;;;;;4985504;28;20064;-56
2022/12/17 17:33:38;;;;;;;48.17;16.10;;;;;;;;;;4988702;28;20487;-52
2022/12/17 17:36:04;;;;;;;50.10;17.60;;;;;;;;;;4975409;28;20409;-54
2022/12/17 17:38:29;;;;;;;57.53;17.33;;;;;;;;;;4976579;28;20038;-54
2022/12/17 17:40:55;;;;;;;52.35;19.38;;;;;;;;;;4973140;28;20544;-56
2022/12/17 17:43:21;;;;;;;72.95;24.30;;;;;;;;;;4977686;28;20089;-56
2022/12/17 17:45:47;;;;;;;50.70;19.77;;;;;;;;;;4984363;28;20444;-55
2022/12/17 17:48:12;;;;;;;81.28;24.17;;;;;;;;;;4981303;28;20077;-55
2022/12/17 17:50:37;;;;;;;64.78;24.13;;;;;;;;;;4986715;28;20042;-54
2022/12/17 17:53:02;;;;;;;60.13;23.23;;;;;;;;;;4985140;28;20100;-55
2022/12/17 17:55:28;;;;;;;61.60;25.52;;;;;;;;;;4985326;28;20113;-55
2022/12/17 17:57:53;;;;;;;43.78;17.38;;;;;;;;;;4988734;28;20108;-56
2022/12/17 18:00:18;;;;;;;63.75;22.20;;;;;;;;;;4982657;28;20108;-53
2022/12/17 18:02:43;;;;;;;42.60;17.60;;;;;;;;;;4977830;28;20038;-55
2022/12/17 18:05:09;;;;;;;39.08;14.45;;;;;;;;;;4979744;28;20026;-55
2022/12/17 18:07:34;;;;;;;36.78;14.20;;;;;;;;;;4956762;28;20022;-55
2022/12/17 18:09:59;;;;;;;27.85;13.15;;;;;;;;;;4986466;28;20175;-56
2022/12/17 18:15:08;;;;;;;48.78;11.43;;;;;;;;;;4976768;28;20053;-56
2022/12/17 18:17:34;;;;;;;34.40;13.52;;;;;;;;;;4969224;28;20477;-53
2022/12/17 18:19:59;;;;;;;61.03;16.65;;;;;;;;;;4974333;28;20089;-55
2022/12/17 18:22:24;;;;;;;43.25;16.92;;;;;;;;;;4974349;28;20115;-56
2022/12/17 18:24:50;;;;;;;85.35;17.27;;;;;;;;;;4971385;28;20413;-58
2022/12/17 18:27:15;;;;;;;67.38;18.00;;;;;;;;;;4967769;28;20026;-55
2022/12/17 18:29:40;;;;;;;58.00;21.33;;;;;;;;;;4971197;28;20444;-55
2022/12/17 18:32:06;;;;;;;68.07;24.05;;;;;;;;;;4973029;28;20117;-55
2022/12/17 18:34:32;;;;;;;79.25;19.10;;;;;;;;;;4971116;28;20105;-56
2022/12/17 18:36:57;;;;;;;64.63;21.50;;;;;;;;;;4968076;28;20548;-56
2022/12/17 18:39:23;;;;;;;64.35;22.73;;;;;;;;;;4979229;28;20096;-56
2022/12/17 18:44:33;;;;;;;57.45;24.50;;;;;;;;;;4974995;28;20041;-55
2022/12/17 18:46:58;;;;;;;70.40;23.45;;;;;;;;;;4970881;28;20031;-58
2022/12/17 18:49:25;;;;;;;269.58;46.35;;;;;;;;;;4977519;28;20528;-55
2022/12/17 18:51:51;;;;;;;81.72;27.60;;;;;;;;;;4978854;28;20460;-56
2022/12/17 18:54:20;;;;;;;49.55;21.48;;;;;;;;;;4966711;28;20061;-54
2022/12/17 18:56:46;;;;;;;62.38;21.77;;;;;;;;;;4976819;28;21210;-56
2022/12/17 18:59:11;;;;;;;56.67;23.40;;;;;;;;;;4976583;28;20026;-55
2022/12/17 19:01:37;;;;;;;74.50;23.50;;;;;;;;;;4980022;28;20026;-56
2022/12/17 19:04:02;;;;;;;67.00;23.65;;;;;;;;;;4980800;28;20374;-55
2022/12/17 19:06:28;;;;;;;78.28;35.10;;;;;;;;;;4976648;28;20436;-55
2022/12/17 19:08:53;;;;;;;64.13;26.85;;;;;;;;;;4977376;28;20067;-56
2022/12/17 19:11:19;;;;;;;75.22;24.02;;;;;;;;;;4973878;28;20113;-55
2022/12/17 19:13:44;;;;;;;43.35;20.25;;;;;;;;;;4977346;28;20042;-55
2022/12/17 19:16:17;;;;;;;65.15;38.13;;;;;;;;;;4975686;28;20034;-55
2022/12/17 19:18:42;;;;;;;66.22;33.42;;;;;;;;;;4976624;28;20038;-56
2022/12/17 19:21:08;;;;;;;37.72;18.20;;;;;;;;;;4972934;28;20031;-55
2022/12/17 19:23:34;;;;;;;51.13;19.23;;;;;;;;;;4941365;28;20054;-54
2022/12/17 19:26:09;;;;;;;53.83;20.50;;;;;;;;;;4968917;28;20023;-55
2022/12/17 19:28:34;;;;;;;43.92;17.48;;;;;;;;;;4980449;28;20032;-55
2022/12/17 19:30:59;;;;;;;55.17;17.42;;;;;;;;;;4977897;28;20023;-55
2022/12/17 19:33:25;;;;;;;37.20;15.43;;;;;;;;;;4975720;28;20480;-55
2022/12/17 19:35:50;;;;;;;29.73;11.60;;;;;;;;;;4973603;28;20037;-53
2022/12/17 19:38:16;;;;;;;22.10;9.43;;;;;;;;;;4974233;28;20859;-54
2022/12/17 19:40:41;;;;;;;29.05;13.32;;;;;;;;;;4974475;28;20081;-55
2022/12/17 19:43:06;;;;;;;38.20;15.50;;;;;;;;;;4974114;28;20050;-55
2022/12/17 19:45:32;;;;;;;22.98;11.50;;;;;;;;;;4976436;28;20025;-56
2022/12/17 19:47:57;;;;;;;35.25;12.27;;;;;;;;;;4971970;28;20500;-55
2022/12/17 19:50:22;;;;;;;44.67;20.00;;;;;;;;;;4969310;28;20022;-55
2022/12/17 19:52:47;;;;;;;36.92;16.73;;;;;;;;;;4965561;28;20416;-53
2022/12/17 19:55:13;;;;;;;68.88;25.15;;;;;;;;;;4978831;28;20448;-55
2022/12/17 19:57:38;;;;;;;46.17;22.60;;;;;;;;;;4967495;28;20366;-56
2022/12/17 20:00:04;;;;;;;30.17;16.10;;;;;;;;;;4974522;28;20019;-56
2022/12/17 20:02:30;;;;;;;38.30;17.58;;;;;;;;;;4969679;28;20161;-54
2022/12/17 20:04:55;;;;;;;35.22;16.65;;;;;;;;;;4978573;28;20477;-54
2022/12/17 20:07:20;;;;;;;24.85;14.13;;;;;;;;;;4978821;28;20053;-56
2022/12/17 20:09:46;;;;;;;48.03;14.73;;;;;;;;;;4972093;28;20027;-56
2022/12/17 20:12:11;;;;;;;19.23;12.25;;;;;;;;;;4957852;28;20038;-55
2022/12/17 20:14:37;;;;;;;26.70;13.20;;;;;;;;;;4969934;28;20114;-55
2022/12/17 20:17:03;;;;;;;25.75;12.32;;;;;;;;;;4972938;28;20105;-55
2022/12/17 20:19:32;;;;;;;38.28;12.90;;;;;;;;;;4974767;28;20045;-55
2022/12/17 20:22:00;;;;;;;40.70;15.20;;;;;;;;;;4975496;28;20085;-55
2022/12/17 20:24:25;;;;;;;30.85;16.08;;;;;;;;;;4970593;28;20063;-55
2022/12/17 20:26:51;;;;;;;28.67;14.52;;;;;;;;;;4978220;28;20145;-56
2022/12/17 20:29:17;;;;;;;22.70;9.50;;;;;;;;;;4978340;28;20031;-54
2022/12/17 20:31:42;;;;;;;29.67;12.35;;;;;;;;;;4975121;28;20232;-52
2022/12/17 20:34:08;;;;;;;31.20;13.10;;;;;;;;;;4957286;28;20105;-55
2022/12/17 20:36:33;;;;;;;15.38;9.00;;;;;;;;;;4971535;28;20018;-55
2022/12/17 20:38:59;;;;;;;17.65;9.23;;;;;;;;;;4975413;28;20025;-55
2022/12/17 20:41:25;;;;;;;11.55;6.95;;;;;;;;;;4980599;28;20037;-54
2022/12/17 20:43:50;;;;;;;33.13;13.85;;;;;;;;;;4975992;28;20030;-52
2022/12/17 20:46:16;;;;;;;26.40;13.27;;;;;;;;;;4975742;28;20024;-53
2022/12/17 20:48:45;;;;;;;21.75;10.73;;;;;;;;;;4977017;28;20092;-54
2022/12/17 20:51:28;;;;;;;21.70;11.50;;;;;;;;;;4972826;28;20036;-52
2022/12/17 20:53:54;;;;;;;12.93;8.02;;;;;;;;;;4973972;28;20139;-53
2022/12/17 20:56:24;;;;;;;14.30;9.15;;;;;;;;;;4974777;28;20027;-55
2022/12/17 20:58:53;;;;;;;17.17;10.13;;;;;;;;;;4974426;28;20027;-55
2022/12/17 21:01:19;;;;;;;16.70;8.50;;;;;;;;;;4972750;28;20031;-54
2022/12/17 21:03:44;;;;;;;17.77;9.00;;;;;;;;;;4970683;28;20492;-54
2022/12/17 21:06:11;;;;;;;10.60;7.32;;;;;;;;;;4976254;28;20118;-55
2022/12/17 21:08:36;;;;;;;17.30;10.63;;;;;;;;;;4959725;28;20027;-55
2022/12/17 21:11:01;;;;;;;17.75;8.48;;;;;;;;;;4970445;28;20492;-55
2022/12/17 21:13:29;;;;;;;18.60;9.68;;;;;;;;;;4975963;28;20148;-53
2022/12/17 21:15:55;;;;;;;22.17;10.05;;;;;;;;;;4975374;28;20038;-54
2022/12/17 21:18:21;;;;;;;17.52;9.38;;;;;;;;;;4948643;28;20018;-55
2022/12/17 21:20:55;;;;;;;23.52;10.32;;;;;;;;;;4976190;28;20035;-55
2022/12/17 21:23:20;;;;;;;16.17;8.85;;;;;;;;;;4973523;28;20054;-56
2022/12/17 21:25:46;;;;;;;17.38;9.45;;;;;;;;;;4973615;28;20104;-54
2022/12/17 21:28:11;;;;;;;15.57;8.93;;;;;;;;;;4973694;28;20853;-54
2022/12/17 21:30:38;;;;;;;21.27;10.20;;;;;;;;;;4975218;28;20023;-54
2022/12/17 21:33:03;;;;;;;14.55;8.88;;;;;;;;;;4971282;28;20015;-54
2022/12/17 21:35:28;;;;;;;21.85;10.32;;;;;;;;;;4976846;28;20524;-54
2022/12/17 21:37:53;;;;;;;18.27;10.55;;;;;;;;;;4970681;28;20346;-55
2022/12/17 21:40:19;;;;;;;19.88;9.45;;;;;;;;;;4979800;28;20061;-55
2022/12/17 21:43:02;;;;;;;21.13;10.80;;;;;;;;;;4959588;28;20061;-55
2022/12/17 21:45:37;;;;;;;13.73;9.20;;;;;;;;;;4974430;28;20372;-54
2022/12/17 21:48:03;;;;;;;18.70;9.98;;;;;;;;;;4974385;28;20018;-54
2022/12/17 21:50:28;;;;;;;23.95;11.90;;;;;;;;;;4977142;28;20022;-54
2022/12/17 21:52:54;;;;;;;18.60;9.85;;;;;;;;;;4979309;28;20026;-55
2022/12/17 21:55:19;;;;;;;16.02;9.63;;;;;;;;;;4971472;28;20019;-53
2022/12/17 21:57:44;;;;;;;15.95;8.02;;;;;;;;;;4972066;28;20527;-55
2022/12/17 22:00:10;;;;;;;25.95;10.43;;;;;;;;;;4978535;28;20030;-55
2022/12/17 22:02:35;;;;;;;14.43;8.77;;;;;;;;;;4977858;28;20061;-54
2022/12/17 22:05:00;;;;;;;17.95;10.32;;;;;;;;;;4976764;28;20065;-54
2022/12/17 22:07:25;;;;;;;18.35;9.90;;;;;;;;;;4969459;28;20118;-54
2022/12/17 22:09:50;;;;;;;21.17;9.68;;;;;;;;;;4976149;28;20098;-56
2022/12/17 22:14:59;;;;;;;25.48;11.23;;;;;;;;;;4975863;28;20367;-56
2022/12/17 22:17:25;;;;;;;25.27;11.50;;;;;;;;;;4976124;28;20022;-53
2022/12/17 22:19:50;;;;;;;26.95;10.50;;;;;;;;;;4971073;28;20618;-56
2022/12/17 22:22:15;;;;;;;18.60;8.30;;;;;;;;;;4975243;28;20117;-55
2022/12/17 22:24:41;;;;;;;32.38;10.95;;;;;;;;;;4973815;28;20152;-56
2022/12/17 22:27:06;;;;;;;12.93;8.98;;;;;;;;;;4971479;28;20034;-54
2022/12/17 22:34:59;;;;;;;19.48;8.88;;;;;;;;;;4975267;28;20126;-57
2022/12/17 22:37:24;;;;;;;13.23;6.95;;;;;;;;;;4968987;28;20473;-56
2022/12/17 22:39:49;;;;;;;17.13;8.45;;;;;;;;;;4971119;28;20086;-56
2022/12/17 22:44:58;;;;;;;20.10;10.10;;;;;;;;;;4977507;28;20025;-56
2022/12/17 22:47:23;;;;;;;19.98;8.13;;;;;;;;;;4972551;28;20026;-56
2022/12/17 22:49:49;;;;;;;23.42;8.90;;;;;;;;;;4976626;28;20263;-56
2022/12/17 22:52:14;;;;;;;22.52;10.07;;;;;;;;;;4971452;28;20030;-58
2022/12/17 22:54:39;;;;;;;15.23;9.20;;;;;;;;;;4971690;28;20038;-53
2022/12/17 22:57:04;;;;;;;5.65;3.47;;;;;;;;;;4973797;28;20037;-54
2022/12/17 22:59:30;;;;;;;14.18;6.45;;;;;;;;;;4965353;28;20378;-55
2022/12/17 23:01:55;;;;;;;8.30;6.03;;;;;;;;;;4966821;28;20472;-55
2022/12/17 23:04:20;;;;;;;22.50;9.20;;;;;;;;;;4964907;28;20042;-53
2022/12/17 23:06:45;;;;;;;16.85;9.43;;;;;;;;;;4973015;28;20030;-52
2022/12/17 23:09:11;;;;;;;11.73;7.38;;;;;;;;;;4977299;28;20030;-55
2022/12/17 23:11:36;;;;;;;25.00;9.98;;;;;;;;;;4969824;28;20023;-54
2022/12/17 23:14:02;;;;;;;25.08;9.82;;;;;;;;;;4976933;28;20027;-55
2022/12/17 23:16:27;;;;;;;21.95;11.60;;;;;;;;;;4969168;28;20385;-55
2022/12/17 23:18:55;;;;;;;19.48;9.73;;;;;;;;;;4977641;28;20499;-55
2022/12/17 23:21:22;;;;;;;22.45;8.75;;;;;;;;;;4973422;28;20472;-55
2022/12/17 23:23:47;;;;;;;13.95;8.90;;;;;;;;;;4975423;28;20141;-55
2022/12/17 23:26:14;;;;;;;13.98;8.88;;;;;;;;;;4972683;28;20447;-56
2022/12/17 23:28:39;;;;;;;22.73;10.30;;;;;;;;;;4973090;28;20082;-55
2022/12/17 23:31:08;;;;;;;17.27;6.88;;;;;;;;;;4975567;28;20074;-55
2022/12/17 23:33:33;;;;;;;19.85;8.95;;;;;;;;;;4971773;28;20373;-56
2022/12/17 23:36:03;;;;;;;10.25;6.93;;;;;;;;;;4974497;28;20030;-54
2022/12/17 23:38:28;;;;;;;12.02;7.30;;;;;;;;;;4976057;28;20146;-54
2022/12/17 23:40:53;;;;;;;12.70;7.43;;;;;;;;;;4969274;28;20121;-56
2022/12/17 23:43:19;;;;;;;14.32;7.32;;;;;;;;;;4971930;28;20072;-56
2022/12/17 23:45:44;;;;;;;14.40;7.55;;;;;;;;;;4969649;28;20054;-56
2022/12/17 23:48:09;;;;;;;14.77;9.13;;;;;;;;;;4973522;28;20525;-55
2022/12/17 23:50:34;;;;;;;16.60;9.27;;;;;;;;;;4979089;28;20550;-54
2022/12/17 23:52:59;;;;;;;19.00;9.80;;;;;;;;;;4972515;28;20022;-54
2022/12/17 23:55:25;;;;;;;15.38;8.68;;;;;;;;;;4975945;28;20033;-55
2022/12/17 23:57:54;;;;;;;18.70;10.10;;;;;;;;;;4972482;28;20074;-54
